createdAt,value
2018-01-01T00:00:37.630Z,0
2018-01-01T00:01:18.194Z,0
2018-01-01T00:01:58.767Z,0
2018-01-01T00:02:39.332Z,0
2018-01-01T00:03:19.895Z,0
2018-01-01T00:04:00.467Z,0
2018-01-01T00:04:41.034Z,0
2018-01-01T00:05:21.588Z,0
2018-01-01T00:06:02.174Z,0
2018-01-01T00:06:42.733Z,0
2018-01-01T00:07:23.307Z,0
2018-01-01T00:08:03.862Z,0
2018-01-01T00:08:44.418Z,0
2018-01-01T00:09:24.996Z,0
2018-01-01T00:10:05.549Z,0
2018-01-01T00:10:46.108Z,0
2018-01-01T00:11:26.678Z,0
2018-01-01T00:12:07.244Z,0
2018-01-01T00:12:47.825Z,0
2018-01-01T00:13:28.391Z,0
2018-01-01T00:14:08.961Z,0
2018-01-01T00:14:49.523Z,0
2018-01-01T00:15:30.096Z,0
2018-01-01T00:16:10.651Z,0
2018-01-01T00:16:51.209Z,0
2018-01-01T00:17:31.804Z,0
2018-01-01T00:18:12.369Z,0
2018-01-01T00:18:52.931Z,0
2018-01-01T00:19:33.520Z,0
2018-01-01T00:20:14.089Z,0
2018-01-01T00:20:54.655Z,0
2018-01-01T00:21:35.215Z,0
2018-01-01T00:22:15.795Z,0
2018-01-01T00:22:56.361Z,0
2018-01-01T00:23:36.913Z,0
2018-01-01T00:24:17.477Z,0
2018-01-01T00:24:58.057Z,0
2018-01-01T00:25:38.622Z,0
2018-01-01T00:26:19.196Z,0
2018-01-01T00:26:59.743Z,0
2018-01-01T00:27:40.307Z,0
2018-01-01T00:28:20.894Z,0
2018-01-01T00:29:01.456Z,0
2018-01-01T00:29:42.020Z,0
2018-01-01T00:30:22.595Z,0
2018-01-01T00:31:03.164Z,0
2018-01-01T00:31:43.729Z,0
2018-01-01T00:32:24.293Z,0
2018-01-01T00:33:04.882Z,0
2018-01-01T00:33:45.466Z,0
2018-01-01T00:34:26.041Z,0
2018-01-01T00:35:06.607Z,0
2018-01-01T00:35:47.186Z,0
2018-01-01T00:36:27.742Z,0
2018-01-01T00:37:08.304Z,0
2018-01-01T00:37:48.877Z,0
2018-01-01T00:38:29.465Z,0
2018-01-01T00:39:10.060Z,0
2018-01-01T00:39:50.632Z,0
2018-01-01T00:40:31.196Z,0
2018-01-01T00:41:11.760Z,0
2018-01-01T00:41:52.338Z,0
2018-01-01T00:42:32.907Z,0
2018-01-01T00:43:13.516Z,0
2018-01-01T00:43:54.081Z,0
2018-01-01T00:44:34.639Z,0
2018-01-01T00:45:15.203Z,0
2018-01-01T00:45:55.766Z,0
2018-01-01T00:46:36.320Z,0
2018-01-01T00:47:16.876Z,0
2018-01-01T00:47:57.430Z,0
2018-01-01T00:48:37.997Z,0
2018-01-01T00:49:18.565Z,0
2018-01-01T00:49:59.128Z,0
2018-01-01T00:50:39.681Z,0
2018-01-01T00:51:20.250Z,0
2018-01-01T00:52:00.814Z,0
2018-01-01T00:52:41.378Z,0
2018-01-01T00:53:21.940Z,0
2018-01-01T00:54:02.504Z,0
2018-01-01T00:54:43.085Z,0
2018-01-01T00:55:23.792Z,0
2018-01-01T00:56:04.822Z,0
2018-01-01T00:56:45.469Z,0
2018-01-01T00:57:26.044Z,0
2018-01-01T00:58:06.969Z,0
2018-01-01T00:58:47.842Z,0
2018-01-01T00:59:28.735Z,0
2018-01-01T01:00:10.383Z,0
2018-01-01T01:00:51.381Z,0
2018-01-01T01:01:33.454Z,0
2018-01-01T01:02:15.427Z,0
2018-01-01T01:02:56.152Z,0
2018-01-01T01:03:37.125Z,0
2018-01-01T01:04:17.909Z,0
2018-01-01T01:04:58.696Z,0
2018-01-01T01:05:39.702Z,0
2018-01-01T01:06:20.628Z,0
2018-01-01T01:07:01.210Z,0
2018-01-01T01:07:41.781Z,0
2018-01-01T01:08:22.351Z,0
2018-01-01T01:09:02.938Z,0
2018-01-01T01:09:43.521Z,0
2018-01-01T01:10:24.102Z,0
2018-01-01T01:11:04.690Z,0
2018-01-01T01:11:45.237Z,0
2018-01-01T01:12:25.800Z,0
2018-01-01T01:13:06.360Z,0
2018-01-01T01:13:46.923Z,0
2018-01-01T01:14:27.484Z,0
2018-01-01T01:15:08.075Z,0
2018-01-01T01:15:48.626Z,0
2018-01-01T01:16:29.191Z,0
2018-01-01T01:17:09.750Z,0
2018-01-01T01:17:50.319Z,0
2018-01-01T01:18:30.894Z,0
2018-01-01T01:19:11.468Z,0
2018-01-01T01:19:52.051Z,0
2018-01-01T01:20:32.616Z,0
2018-01-01T01:21:13.192Z,0
2018-01-01T01:21:53.758Z,0
2018-01-01T01:22:34.328Z,0
2018-01-01T01:23:14.894Z,0
2018-01-01T01:23:55.464Z,0
2018-01-01T01:24:36.029Z,0
2018-01-01T01:25:16.589Z,0
2018-01-01T01:25:57.147Z,0
2018-01-01T01:26:37.723Z,0
2018-01-01T01:27:18.277Z,0
2018-01-01T01:27:58.851Z,0
2018-01-01T01:28:39.415Z,0
2018-01-01T01:29:19.998Z,0
2018-01-01T01:30:00.579Z,0
2018-01-01T01:30:41.155Z,0
2018-01-01T01:31:21.713Z,0
2018-01-01T01:32:02.277Z,0
2018-01-01T01:32:42.851Z,0
2018-01-01T01:33:23.432Z,0
2018-01-01T01:34:03.991Z,0
2018-01-01T01:34:44.571Z,0
2018-01-01T01:35:25.136Z,0
2018-01-01T01:36:05.699Z,0
2018-01-01T01:36:46.255Z,0
2018-01-01T01:37:26.825Z,0
2018-01-01T01:38:07.395Z,0
2018-01-01T01:38:47.960Z,0
2018-01-01T01:39:28.534Z,0
2018-01-01T01:40:09.101Z,0
2018-01-01T01:40:49.675Z,0
2018-01-01T01:41:30.242Z,0
2018-01-01T01:42:10.799Z,0
2018-01-01T01:42:51.364Z,0
2018-01-01T01:43:31.918Z,0
2018-01-01T01:44:12.492Z,0
2018-01-01T01:44:53.070Z,0
2018-01-01T01:45:33.642Z,0
2018-01-01T01:46:14.218Z,0
2018-01-01T01:46:54.774Z,0
2018-01-01T01:47:35.352Z,0
2018-01-01T01:48:15.909Z,0
2018-01-01T01:48:56.477Z,0
2018-01-01T01:49:37.066Z,0
2018-01-01T01:50:17.634Z,0
2018-01-01T01:50:58.194Z,0
2018-01-01T01:51:38.762Z,0
2018-01-01T01:52:19.317Z,0
2018-01-01T01:52:59.878Z,0
2018-01-01T01:53:40.464Z,0
2018-01-01T01:54:21.009Z,0
2018-01-01T01:55:01.579Z,0
2018-01-01T01:55:42.139Z,0
2018-01-01T01:56:22.720Z,0
2018-01-01T01:57:03.295Z,0
2018-01-01T01:57:43.885Z,0
2018-01-01T01:58:24.442Z,0
2018-01-01T01:59:05.000Z,0
2018-01-01T01:59:45.567Z,0
2018-01-01T02:00:26.128Z,0
2018-01-01T02:01:06.684Z,0
2018-01-01T02:01:47.249Z,0
2018-01-01T02:02:27.824Z,0
2018-01-01T02:03:08.382Z,0
2018-01-01T02:03:48.942Z,0
2018-01-01T02:04:29.512Z,0
2018-01-01T02:05:10.089Z,0
2018-01-01T02:05:50.662Z,0
2018-01-01T02:06:31.227Z,0
2018-01-01T02:07:11.840Z,0
2018-01-01T02:07:52.406Z,0
2018-01-01T02:08:32.976Z,0
2018-01-01T02:09:13.543Z,0
2018-01-01T02:09:54.112Z,0
2018-01-01T02:10:34.676Z,0
2018-01-01T02:11:15.233Z,0
2018-01-01T02:11:55.810Z,0
2018-01-01T02:12:36.367Z,0
2018-01-01T02:13:16.925Z,0
2018-01-01T02:13:57.499Z,0
2018-01-01T02:14:38.069Z,0
2018-01-01T02:15:18.639Z,0
2018-01-01T02:15:59.262Z,0
2018-01-01T02:16:39.835Z,0
2018-01-01T02:17:20.402Z,0
2018-01-01T02:18:00.971Z,0
2018-01-01T02:18:41.572Z,0
2018-01-01T02:19:22.147Z,0
2018-01-01T02:20:02.709Z,0
2018-01-01T02:20:43.266Z,0
2018-01-01T02:21:23.835Z,0
2018-01-01T02:22:04.415Z,0
2018-01-01T02:22:44.972Z,0
2018-01-01T02:23:25.531Z,0
2018-01-01T02:24:06.088Z,0
2018-01-01T02:24:46.645Z,0
2018-01-01T02:25:27.253Z,0
2018-01-01T02:26:07.834Z,0
2018-01-01T02:26:48.396Z,0
2018-01-01T02:27:28.970Z,0
2018-01-01T02:28:09.547Z,0
2018-01-01T02:28:50.109Z,0
2018-01-01T02:29:30.666Z,0
2018-01-01T02:30:11.239Z,0
2018-01-01T02:30:51.807Z,0
2018-01-01T02:31:32.378Z,0
2018-01-01T02:32:12.929Z,0
2018-01-01T02:32:53.503Z,0
2018-01-01T02:33:34.063Z,0
2018-01-01T02:34:14.644Z,0
2018-01-01T02:34:55.202Z,0
2018-01-01T02:35:35.765Z,0
2018-01-01T02:36:16.325Z,0
2018-01-01T02:36:56.883Z,0
2018-01-01T02:37:37.447Z,0
2018-01-01T02:38:18.045Z,0
2018-01-01T02:38:58.603Z,0
2018-01-01T02:39:39.171Z,0
2018-01-01T02:40:19.739Z,0
2018-01-01T02:41:00.309Z,0
2018-01-01T02:41:40.886Z,0
2018-01-01T02:42:21.457Z,0
2018-01-01T02:43:02.014Z,0
2018-01-01T02:43:42.577Z,0
2018-01-01T02:44:23.136Z,0
2018-01-01T02:45:03.696Z,0
2018-01-01T02:45:44.264Z,0
2018-01-01T02:46:24.830Z,0
2018-01-01T02:47:05.399Z,0
2018-01-01T02:47:45.981Z,0
2018-01-01T02:48:26.539Z,0
2018-01-01T02:49:07.101Z,0
2018-01-01T02:49:47.670Z,0
2018-01-01T02:50:28.237Z,0
2018-01-01T02:51:08.800Z,0
2018-01-01T02:51:49.379Z,0
2018-01-01T02:52:29.941Z,0
2018-01-01T02:53:10.505Z,0
2018-01-01T02:53:51.079Z,0
2018-01-01T02:54:31.641Z,0
2018-01-01T02:55:12.220Z,0
2018-01-01T02:55:52.780Z,0
2018-01-01T02:56:33.343Z,0
2018-01-01T02:57:13.912Z,0
2018-01-01T02:57:54.480Z,0
2018-01-01T02:58:35.035Z,0
2018-01-01T02:59:15.594Z,0
2018-01-01T02:59:56.149Z,0
2018-01-01T03:00:36.703Z,0
2018-01-01T03:01:17.270Z,0
2018-01-01T03:01:57.836Z,0
2018-01-01T03:02:38.385Z,0
2018-01-01T03:03:18.964Z,0
2018-01-01T03:03:59.527Z,0
2018-01-01T03:04:40.093Z,0
2018-01-01T03:05:20.745Z,0
2018-01-01T03:06:01.313Z,0
2018-01-01T03:06:41.881Z,0
2018-01-01T03:07:22.468Z,0
2018-01-01T03:08:03.031Z,0
2018-01-01T03:08:43.601Z,0
2018-01-01T03:09:24.192Z,0
2018-01-01T03:10:04.751Z,0
2018-01-01T03:10:45.321Z,0
2018-01-01T03:11:25.881Z,0
2018-01-01T03:12:06.440Z,0
2018-01-01T03:12:47.348Z,0
2018-01-01T03:13:27.914Z,0
2018-01-01T03:14:08.485Z,0
2018-01-01T03:14:49.051Z,0
2018-01-01T03:15:29.626Z,0
2018-01-01T03:16:10.191Z,0
2018-01-01T03:16:50.754Z,0
2018-01-01T03:17:31.316Z,0
2018-01-01T03:18:11.887Z,0
2018-01-01T03:18:52.448Z,0
2018-01-01T03:19:33.014Z,0
2018-01-01T03:20:13.585Z,0
2018-01-01T03:20:54.166Z,0
2018-01-01T03:21:34.723Z,0
2018-01-01T03:22:15.314Z,0
2018-01-01T03:22:55.876Z,0
2018-01-01T03:23:36.440Z,0
2018-01-01T03:24:17.015Z,0
2018-01-01T03:24:57.575Z,0
2018-01-01T03:25:38.145Z,0
2018-01-01T03:26:18.736Z,0
2018-01-01T03:26:59.305Z,0
2018-01-01T03:27:39.886Z,0
2018-01-01T03:28:20.467Z,0
2018-01-01T03:29:01.045Z,0
2018-01-01T03:29:41.658Z,0
2018-01-01T03:30:22.242Z,0
2018-01-01T03:31:02.801Z,0
2018-01-01T03:31:43.372Z,0
2018-01-01T03:32:23.926Z,0
2018-01-01T03:33:04.497Z,0
2018-01-01T03:33:45.062Z,0
2018-01-01T03:34:25.635Z,0
2018-01-01T03:35:06.203Z,0
2018-01-01T03:35:46.771Z,0
2018-01-01T03:36:27.346Z,0
2018-01-01T03:37:08.012Z,0
2018-01-01T03:37:48.691Z,0
2018-01-01T03:38:29.241Z,0
2018-01-01T03:39:09.800Z,0
2018-01-01T03:39:50.474Z,0
2018-01-01T03:40:31.188Z,0
2018-01-01T03:41:11.776Z,0
2018-01-01T03:41:52.340Z,0
2018-01-01T03:42:32.899Z,0
2018-01-01T03:43:13.483Z,0
2018-01-01T03:43:54.099Z,0
2018-01-01T03:44:34.705Z,0
2018-01-01T03:45:15.273Z,0
2018-01-01T03:45:55.845Z,0
2018-01-01T03:46:36.410Z,0
2018-01-01T03:47:17.009Z,0
2018-01-01T03:47:57.575Z,0
2018-01-01T03:48:38.179Z,0
2018-01-01T03:49:18.811Z,0
2018-01-01T03:49:59.379Z,0
2018-01-01T03:50:39.957Z,0
2018-01-01T03:51:20.521Z,0
2018-01-01T03:52:01.093Z,0
2018-01-01T03:52:41.666Z,0
2018-01-01T03:53:22.261Z,0
2018-01-01T03:54:02.817Z,0
2018-01-01T03:54:43.421Z,0
2018-01-01T03:55:23.984Z,0
2018-01-01T03:56:04.562Z,0
2018-01-01T03:56:45.132Z,0
2018-01-01T03:57:25.732Z,0
2018-01-01T03:58:06.344Z,0
2018-01-01T03:58:46.890Z,0
2018-01-01T03:59:27.456Z,0
2018-01-01T04:00:08.031Z,0
2018-01-01T04:00:48.639Z,0
2018-01-01T04:01:29.224Z,0
2018-01-01T04:02:09.781Z,0
2018-01-01T04:02:50.358Z,0
2018-01-01T04:03:30.925Z,0
2018-01-01T04:04:11.506Z,0
2018-01-01T04:04:52.071Z,0
2018-01-01T04:05:32.639Z,0
2018-01-01T04:06:13.210Z,0
2018-01-01T04:06:53.782Z,0
2018-01-01T04:07:34.397Z,0
2018-01-01T04:08:14.975Z,0
2018-01-01T04:08:55.596Z,0
2018-01-01T04:09:36.159Z,0
2018-01-01T04:10:16.719Z,0
2018-01-01T04:10:57.291Z,0
2018-01-01T04:11:37.857Z,0
2018-01-01T04:12:18.428Z,0
2018-01-01T04:12:59.004Z,0
2018-01-01T04:13:39.583Z,0
2018-01-01T04:14:20.153Z,0
2018-01-01T04:15:00.723Z,0
2018-01-01T04:15:41.288Z,0
2018-01-01T04:16:21.865Z,0
2018-01-01T04:17:02.444Z,0
2018-01-01T04:17:43.006Z,0
2018-01-01T04:18:23.602Z,0
2018-01-01T04:19:04.175Z,0
2018-01-01T04:19:44.735Z,0
2018-01-01T04:20:25.353Z,0
2018-01-01T04:21:05.946Z,0
2018-01-01T04:21:46.524Z,0
2018-01-01T04:22:27.092Z,0
2018-01-01T04:23:07.657Z,0
2018-01-01T04:23:48.239Z,0
2018-01-01T04:24:28.818Z,0
2018-01-01T04:25:09.405Z,0
2018-01-01T04:25:49.955Z,0
2018-01-01T04:26:30.537Z,0
2018-01-01T04:27:11.116Z,0
2018-01-01T04:27:51.713Z,0
2018-01-01T04:28:32.286Z,0
2018-01-01T04:29:12.848Z,0
2018-01-01T04:29:53.449Z,0
2018-01-01T04:30:34.006Z,0
2018-01-01T04:31:14.576Z,0
2018-01-01T04:31:55.177Z,0
2018-01-01T04:32:35.750Z,0
2018-01-01T04:33:16.312Z,0
2018-01-01T04:33:56.886Z,0
2018-01-01T04:34:37.472Z,0
2018-01-01T04:35:18.041Z,0
2018-01-01T04:35:58.607Z,0
2018-01-01T04:36:39.176Z,0
2018-01-01T04:37:19.738Z,0
2018-01-01T04:38:00.303Z,0
2018-01-01T04:38:40.886Z,0
2018-01-01T04:39:21.452Z,0
2018-01-01T04:40:02.026Z,0
2018-01-01T04:40:42.593Z,0
2018-01-01T04:41:23.156Z,0
2018-01-01T04:42:03.731Z,0
2018-01-01T04:42:44.320Z,0
2018-01-01T04:43:24.888Z,0
2018-01-01T04:44:05.495Z,0
2018-01-01T04:44:46.060Z,0
2018-01-01T04:45:26.632Z,0
2018-01-01T04:46:07.195Z,0
2018-01-01T04:46:47.759Z,0
2018-01-01T04:47:28.330Z,0
2018-01-01T04:48:08.900Z,0
2018-01-01T04:48:49.473Z,0
2018-01-01T04:49:30.086Z,0
2018-01-01T04:50:10.677Z,0
2018-01-01T04:50:51.234Z,0
2018-01-01T04:51:31.798Z,0
2018-01-01T04:52:12.379Z,0
2018-01-01T04:52:52.971Z,0
2018-01-01T04:53:33.535Z,0
2018-01-01T04:54:14.116Z,0
2018-01-01T04:54:54.691Z,0
2018-01-01T04:55:35.259Z,0
2018-01-01T04:56:15.818Z,0
2018-01-01T04:56:56.382Z,0
2018-01-01T04:57:36.953Z,0
2018-01-01T04:58:17.519Z,0
2018-01-01T04:58:58.102Z,0
2018-01-01T04:59:38.682Z,0
2018-01-01T05:00:19.248Z,0
2018-01-01T05:00:59.817Z,0
2018-01-01T05:01:40.385Z,0
2018-01-01T05:02:20.949Z,0
2018-01-01T05:03:01.544Z,0
2018-01-01T05:03:42.100Z,0
2018-01-01T05:04:22.660Z,0
2018-01-01T05:05:03.235Z,0
2018-01-01T05:05:43.803Z,0
2018-01-01T05:06:24.385Z,0
2018-01-01T05:07:04.973Z,0
2018-01-01T05:07:45.549Z,0
2018-01-01T05:08:26.111Z,0
2018-01-01T05:09:06.681Z,0
2018-01-01T05:09:47.277Z,0
2018-01-01T05:10:27.877Z,0
2018-01-01T05:11:08.453Z,0
2018-01-01T05:11:49.011Z,0
2018-01-01T05:12:29.587Z,0
2018-01-01T05:13:10.156Z,0
2018-01-01T05:13:50.732Z,0
2018-01-01T05:14:31.306Z,0
2018-01-01T05:15:11.868Z,0
2018-01-01T05:15:52.436Z,0
2018-01-01T05:16:33.001Z,0
2018-01-01T05:17:13.563Z,0
2018-01-01T05:17:54.123Z,0
2018-01-01T05:18:34.700Z,0
2018-01-01T05:19:15.276Z,0
2018-01-01T05:19:55.840Z,0
2018-01-01T05:20:36.417Z,0
2018-01-01T05:21:16.990Z,0
2018-01-01T05:21:57.560Z,0
2018-01-01T05:22:38.132Z,0
2018-01-01T05:23:18.696Z,0
2018-01-01T05:23:59.266Z,0
2018-01-01T05:24:39.835Z,0
2018-01-01T05:25:20.400Z,0
2018-01-01T05:26:00.961Z,0
2018-01-01T05:26:41.516Z,0
2018-01-01T05:27:22.072Z,0
2018-01-01T05:28:02.651Z,0
2018-01-01T05:28:43.212Z,0
2018-01-01T05:29:24.973Z,0
2018-01-01T05:30:17.239Z,0
2018-01-01T05:30:57.805Z,0
2018-01-01T05:31:38.396Z,0
2018-01-01T05:32:18.948Z,0
2018-01-01T05:32:59.534Z,0
2018-01-01T05:33:40.099Z,0
2018-01-01T05:34:20.663Z,0
2018-01-01T05:35:01.214Z,0
2018-01-01T05:35:41.786Z,0
2018-01-01T05:36:22.358Z,0
2018-01-01T05:37:02.914Z,0
2018-01-01T05:37:43.486Z,0
2018-01-01T05:38:24.047Z,0
2018-01-01T05:39:04.619Z,0
2018-01-01T05:39:45.192Z,0
2018-01-01T05:40:25.769Z,0
2018-01-01T05:41:06.324Z,0
2018-01-01T05:41:46.894Z,0
2018-01-01T05:42:27.472Z,0
2018-01-01T05:43:08.052Z,0
2018-01-01T05:43:48.624Z,0
2018-01-01T05:44:29.203Z,0
2018-01-01T05:45:09.771Z,0
2018-01-01T05:45:50.330Z,0
2018-01-01T05:46:30.892Z,0
2018-01-01T05:47:11.467Z,0
2018-01-01T05:47:52.085Z,0
2018-01-01T05:48:32.605Z,0
2018-01-01T05:49:13.176Z,0
2018-01-01T05:49:53.741Z,0
2018-01-01T05:50:34.321Z,0
2018-01-01T05:51:14.879Z,0
2018-01-01T05:51:55.440Z,0
2018-01-01T05:52:36.007Z,0
2018-01-01T05:53:16.566Z,0
2018-01-01T05:53:57.131Z,0
2018-01-01T05:54:37.681Z,0
2018-01-01T05:55:18.242Z,0
2018-01-01T05:55:58.808Z,0
2018-01-01T05:56:39.387Z,0
2018-01-01T05:57:19.971Z,0
2018-01-01T05:58:00.539Z,0
2018-01-01T05:58:41.094Z,0
2018-01-01T05:59:21.658Z,0
2018-01-01T06:00:02.232Z,0
2018-01-01T06:00:42.792Z,0
2018-01-01T06:01:23.349Z,0
2018-01-01T06:02:03.923Z,0
2018-01-01T06:02:44.486Z,0
2018-01-01T06:03:25.054Z,0
2018-01-01T06:04:05.614Z,0
2018-01-01T06:04:46.188Z,0
2018-01-01T06:05:26.753Z,0
2018-01-01T06:06:07.319Z,0
2018-01-01T06:06:47.887Z,0
2018-01-01T06:07:28.451Z,0
2018-01-01T06:08:09.019Z,4
2018-01-01T06:08:49.596Z,4
2018-01-01T06:09:30.188Z,4
2018-01-01T06:10:10.770Z,4
2018-01-01T06:10:51.342Z,4
2018-01-01T06:11:31.906Z,4
2018-01-01T06:12:12.475Z,4
2018-01-01T06:12:53.045Z,4
2018-01-01T06:13:33.640Z,4
2018-01-01T06:14:14.205Z,4
2018-01-01T06:14:54.777Z,4
2018-01-01T06:15:35.364Z,4
2018-01-01T06:16:15.934Z,4
2018-01-01T06:16:56.499Z,4
2018-01-01T06:17:37.093Z,4
2018-01-01T06:18:17.661Z,4
2018-01-01T06:18:58.224Z,4
2018-01-01T06:19:38.834Z,4
2018-01-01T06:20:19.397Z,4
2018-01-01T06:20:59.960Z,4
2018-01-01T06:21:40.522Z,4
2018-01-01T06:22:21.086Z,4
2018-01-01T06:23:01.644Z,4
2018-01-01T06:23:42.206Z,4
2018-01-01T06:24:22.770Z,4
2018-01-01T06:25:03.337Z,4
2018-01-01T06:25:43.907Z,4
2018-01-01T06:26:24.473Z,4
2018-01-01T06:27:05.032Z,4
2018-01-01T06:27:45.605Z,4
2018-01-01T06:28:26.164Z,4
2018-01-01T06:29:06.729Z,4
2018-01-01T06:29:47.288Z,4
2018-01-01T06:30:27.847Z,4
2018-01-01T06:31:08.402Z,4
2018-01-01T06:31:48.973Z,4
2018-01-01T06:32:29.547Z,4
2018-01-01T06:33:10.143Z,4
2018-01-01T06:33:50.699Z,4
2018-01-01T06:34:31.258Z,4
2018-01-01T06:35:11.816Z,4
2018-01-01T06:35:52.384Z,4
2018-01-01T06:36:32.939Z,4
2018-01-01T06:37:13.493Z,4
2018-01-01T06:37:54.111Z,4
2018-01-01T06:38:34.668Z,4
2018-01-01T06:39:15.241Z,4
2018-01-01T06:39:55.796Z,4
2018-01-01T06:40:36.369Z,4
2018-01-01T06:41:16.932Z,0
2018-01-01T06:41:57.514Z,0
2018-01-01T06:42:38.076Z,0
2018-01-01T06:43:18.659Z,0
2018-01-01T06:43:59.238Z,4
2018-01-01T06:44:39.819Z,4
2018-01-01T06:45:20.383Z,4
2018-01-01T06:46:00.949Z,4
2018-01-01T06:46:41.528Z,4
2018-01-01T06:47:22.100Z,0
2018-01-01T06:48:02.679Z,4
2018-01-01T06:48:43.234Z,4
2018-01-01T06:49:23.784Z,4
2018-01-01T06:50:04.342Z,4
2018-01-01T06:50:44.895Z,4
2018-01-01T06:51:25.484Z,4
2018-01-01T06:52:06.053Z,4
2018-01-01T06:52:46.622Z,4
2018-01-01T06:53:27.187Z,8
2018-01-01T06:54:07.760Z,8
2018-01-01T06:54:48.331Z,8
2018-01-01T06:55:28.886Z,8
2018-01-01T06:56:09.450Z,8
2018-01-01T06:56:50.010Z,16
2018-01-01T06:57:30.578Z,16
2018-01-01T06:58:11.140Z,20
2018-01-01T06:58:51.702Z,24
2018-01-01T06:59:32.272Z,24
2018-01-01T07:00:12.838Z,20
2018-01-01T07:00:53.400Z,28
2018-01-01T07:01:33.962Z,36
2018-01-01T07:02:14.543Z,32
2018-01-01T07:02:55.097Z,24
2018-01-01T07:03:35.654Z,20
2018-01-01T07:04:16.208Z,20
2018-01-01T07:04:56.768Z,24
2018-01-01T07:05:37.348Z,24
2018-01-01T07:06:17.943Z,20
2018-01-01T07:06:58.515Z,20
2018-01-01T07:07:39.080Z,24
2018-01-01T07:08:19.643Z,28
2018-01-01T07:09:00.215Z,24
2018-01-01T07:09:40.768Z,28
2018-01-01T07:10:21.343Z,28
2018-01-01T07:11:01.915Z,36
2018-01-01T07:11:42.496Z,36
2018-01-01T07:12:23.096Z,36
2018-01-01T07:13:03.678Z,40
2018-01-01T07:13:44.236Z,44
2018-01-01T07:14:24.794Z,52
2018-01-01T07:15:05.350Z,60
2018-01-01T07:15:45.919Z,68
2018-01-01T07:16:26.497Z,60
2018-01-01T07:17:07.071Z,64
2018-01-01T07:17:47.633Z,64
2018-01-01T07:18:28.191Z,72
2018-01-01T07:19:08.761Z,92
2018-01-01T07:19:49.323Z,112
2018-01-01T07:20:29.884Z,128
2018-01-01T07:21:10.454Z,140
2018-01-01T07:21:51.024Z,144
2018-01-01T07:22:32.438Z,176
2018-01-01T07:23:12.999Z,212
2018-01-01T07:23:53.587Z,244
2018-01-01T07:24:34.147Z,268
2018-01-01T07:25:14.718Z,280
2018-01-01T07:25:55.274Z,284
2018-01-01T07:26:35.844Z,288
2018-01-01T07:27:16.415Z,288
2018-01-01T07:27:56.994Z,296
2018-01-01T07:28:37.551Z,316
2018-01-01T07:29:18.136Z,352
2018-01-01T07:29:58.695Z,380
2018-01-01T07:30:39.263Z,412
2018-01-01T07:31:19.833Z,456
2018-01-01T07:32:00.407Z,492
2018-01-01T07:32:40.967Z,520
2018-01-01T07:33:21.527Z,548
2018-01-01T07:34:02.089Z,560
2018-01-01T07:34:42.649Z,576
2018-01-01T07:35:23.214Z,580
2018-01-01T07:36:03.767Z,596
2018-01-01T07:36:44.340Z,620
2018-01-01T07:37:24.897Z,664
2018-01-01T07:38:05.454Z,708
2018-01-01T07:38:46.025Z,780
2018-01-01T07:39:26.576Z,856
2018-01-01T07:40:07.130Z,868
2018-01-01T07:40:47.687Z,860
2018-01-01T07:41:28.262Z,848
2018-01-01T07:42:08.824Z,844
2018-01-01T07:42:49.388Z,840
2018-01-01T07:43:29.948Z,864
2018-01-01T07:44:10.517Z,872
2018-01-01T07:44:51.074Z,912
2018-01-01T07:45:31.641Z,976
2018-01-01T07:46:12.202Z,1012
2018-01-01T07:46:52.777Z,1012
2018-01-01T07:47:33.328Z,1000
2018-01-01T07:48:13.907Z,1000
2018-01-01T07:48:54.463Z,1036
2018-01-01T07:49:35.033Z,1164
2018-01-01T07:50:15.592Z,1228
2018-01-01T07:50:56.154Z,1160
2018-01-01T07:51:36.704Z,1148
2018-01-01T07:52:17.271Z,1112
2018-01-01T07:52:57.837Z,1020
2018-01-01T07:53:38.397Z,952
2018-01-01T07:54:18.959Z,896
2018-01-01T07:54:59.523Z,852
2018-01-01T07:55:40.079Z,812
2018-01-01T07:56:20.655Z,788
2018-01-01T07:57:01.220Z,872
2018-01-01T07:57:41.778Z,996
2018-01-01T07:58:22.351Z,1028
2018-01-01T07:59:02.928Z,1032
2018-01-01T07:59:43.486Z,1088
2018-01-01T08:00:24.057Z,1140
2018-01-01T08:01:04.630Z,1196
2018-01-01T08:01:45.239Z,1276
2018-01-01T08:02:25.825Z,1384
2018-01-01T08:03:06.388Z,1532
2018-01-01T08:03:46.951Z,1728
2018-01-01T08:04:27.515Z,1860
2018-01-01T08:05:08.093Z,1904
2018-01-01T08:05:48.673Z,1864
2018-01-01T08:06:29.284Z,1752
2018-01-01T08:07:09.844Z,1688
2018-01-01T08:07:50.430Z,1668
2018-01-01T08:08:31.042Z,1736
2018-01-01T08:09:11.602Z,1796
2018-01-01T08:09:52.191Z,1804
2018-01-01T08:10:32.752Z,1808
2018-01-01T08:11:13.310Z,1892
2018-01-01T08:11:53.915Z,1912
2018-01-01T08:12:34.497Z,1880
2018-01-01T08:13:15.054Z,1800
2018-01-01T08:13:55.611Z,1680
2018-01-01T08:14:36.191Z,1596
2018-01-01T08:15:16.751Z,1592
2018-01-01T08:15:57.305Z,1632
2018-01-01T08:16:37.871Z,1644
2018-01-01T08:17:18.425Z,1736
2018-01-01T08:17:58.997Z,1840
2018-01-01T08:18:39.582Z,1996
2018-01-01T08:19:20.165Z,2152
2018-01-01T08:20:00.731Z,2344
2018-01-01T08:20:41.300Z,2472
2018-01-01T08:21:21.858Z,2424
2018-01-01T08:22:02.431Z,2576
2018-01-01T08:22:42.994Z,2772
2018-01-01T08:23:23.596Z,2796
2018-01-01T08:24:04.139Z,2840
2018-01-01T08:24:44.709Z,2340
2018-01-01T08:25:25.267Z,1988
2018-01-01T08:26:05.819Z,1936
2018-01-01T08:26:46.394Z,2084
2018-01-01T08:27:26.956Z,2252
2018-01-01T08:28:07.523Z,2440
2018-01-01T08:28:48.100Z,2332
2018-01-01T08:29:28.674Z,2160
2018-01-01T08:30:09.282Z,2076
2018-01-01T08:30:49.872Z,2128
2018-01-01T08:31:30.456Z,2048
2018-01-01T08:32:11.036Z,1980
2018-01-01T08:32:51.591Z,1860
2018-01-01T08:33:32.158Z,1924
2018-01-01T08:34:12.716Z,1996
2018-01-01T08:34:53.283Z,2200
2018-01-01T08:35:33.854Z,2276
2018-01-01T08:36:14.421Z,2272
2018-01-01T08:36:54.977Z,2256
2018-01-01T08:37:35.541Z,2384
2018-01-01T08:38:16.105Z,2436
2018-01-01T08:38:56.662Z,2220
2018-01-01T08:39:37.214Z,2144
2018-01-01T08:40:17.791Z,2188
2018-01-01T08:40:58.394Z,2248
2018-01-01T08:41:38.967Z,2508
2018-01-01T08:42:19.527Z,2416
2018-01-01T08:43:00.097Z,2080
2018-01-01T08:43:40.676Z,1976
2018-01-01T08:44:21.252Z,2152
2018-01-01T08:45:01.804Z,2080
2018-01-01T08:45:42.372Z,2180
2018-01-01T08:46:22.967Z,2144
2018-01-01T08:47:03.536Z,2224
2018-01-01T08:47:44.102Z,2088
2018-01-01T08:48:24.670Z,2084
2018-01-01T08:49:05.584Z,1964
2018-01-01T08:49:46.141Z,2220
2018-01-01T08:50:26.725Z,2636
2018-01-01T08:51:07.278Z,2932
2018-01-01T08:51:47.845Z,2944
2018-01-01T08:52:28.423Z,3408
2018-01-01T08:53:08.988Z,3576
2018-01-01T08:53:49.548Z,3864
2018-01-01T08:54:30.109Z,3544
2018-01-01T08:55:10.681Z,3724
2018-01-01T08:55:51.235Z,4300
2018-01-01T08:56:31.792Z,4556
2018-01-01T08:57:12.362Z,7292
2018-01-01T08:57:52.917Z,8204
2018-01-01T08:58:33.491Z,6520
2018-01-01T08:59:14.106Z,12108
2018-01-01T08:59:54.634Z,24224
2018-01-01T09:00:35.230Z,21472
2018-01-01T09:01:15.748Z,17056
2018-01-01T09:01:56.341Z,14176
2018-01-01T09:02:36.894Z,14944
2018-01-01T09:03:17.453Z,17984
2018-01-01T09:03:58.022Z,21024
2018-01-01T09:04:38.589Z,18944
2018-01-01T09:05:19.148Z,15424
2018-01-01T09:05:59.702Z,15840
2018-01-01T09:06:40.261Z,13760
2018-01-01T09:07:20.827Z,7712
2018-01-01T09:08:01.398Z,7296
2018-01-01T09:08:42.654Z,6892
2018-01-01T09:09:23.213Z,5232
2018-01-01T09:10:05.213Z,8396
2018-01-01T09:10:45.771Z,12888
2018-01-01T09:11:26.341Z,25248
2018-01-01T09:12:06.905Z,26496
2018-01-01T09:12:47.477Z,25472
2018-01-01T09:13:28.046Z,24224
2018-01-01T09:14:08.633Z,26240
2018-01-01T09:14:49.233Z,26592
2018-01-01T09:15:29.798Z,29440
2018-01-01T09:16:10.379Z,29856
2018-01-01T09:16:50.952Z,31616
2018-01-01T09:17:31.511Z,27616
2018-01-01T09:18:12.088Z,13056
2018-01-01T09:18:52.646Z,17216
2018-01-01T09:19:33.230Z,13044
2018-01-01T09:20:13.792Z,15232
2018-01-01T09:20:54.366Z,25600
2018-01-01T09:21:34.938Z,29952
2018-01-01T09:22:15.510Z,23392
2018-01-01T09:22:56.068Z,30752
2018-01-01T09:23:36.624Z,21856
2018-01-01T09:24:17.196Z,24832
2018-01-01T09:24:57.766Z,21504
2018-01-01T09:25:38.344Z,17760
2018-01-01T09:26:18.898Z,18272
2018-01-01T09:26:59.454Z,21664
2018-01-01T09:27:40.050Z,22528
2018-01-01T09:28:20.668Z,22016
2018-01-01T09:29:01.183Z,22400
2018-01-01T09:29:41.777Z,16096
2018-01-01T09:30:22.358Z,20896
2018-01-01T09:31:02.918Z,18304
2018-01-01T09:31:43.485Z,20832
2018-01-01T09:32:24.072Z,16896
2018-01-01T09:33:04.636Z,5796
2018-01-01T09:33:45.211Z,9460
2018-01-01T09:34:25.778Z,5720
2018-01-01T09:35:06.368Z,10536
2018-01-01T09:35:46.940Z,6924
2018-01-01T09:36:27.541Z,15168
2018-01-01T09:37:08.105Z,18016
2018-01-01T09:37:48.676Z,17888
2018-01-01T09:38:29.247Z,20704
2018-01-01T09:39:09.817Z,24256
2018-01-01T09:39:50.389Z,25952
2018-01-01T09:40:30.957Z,22592
2018-01-01T09:41:11.542Z,14688
2018-01-01T09:41:52.137Z,20960
2018-01-01T09:42:32.702Z,15968
2018-01-01T09:43:13.272Z,14944